sensor_id;sensor_type;location;lat;lon;timestamp;temperature;humidity
47757;SHT35;22147;52.388;13.390;2023-03-05T00:01:44;3.42;76.44
47757;SHT35;22147;52.388;13.390;2023-03-05T00:04:14;3.46;76.46
47757;SHT35;22147;52.388;13.390;2023-03-05T00:06:44;3.46;76.68
47757;SHT35;22147;52.388;13.390;2023-03-05T00:09:14;3.33;77.60
47757;SHT35;22147;52.388;13.390;2023-03-05T00:11:44;3.26;78.82
47757;SHT35;22147;52.388;13.390;2023-03-05T00:14:14;3.20;79.42
47757;SHT35;22147;52.388;13.390;2023-03-05T00:16:44;3.20;79.94
47757;SHT35;22147;52.388;13.390;2023-03-05T00:19:14;3.19;80.81
47757;SHT35;22147;52.388;13.390;2023-03-05T00:21:44;3.22;81.02
47757;SHT35;22147;52.388;13.390;2023-03-05T00:24:17;3.11;82.35
47757;SHT35;22147;52.388;13.390;2023-03-05T00:26:47;2.92;83.05
47757;SHT35;22147;52.388;13.390;2023-03-05T00:29:20;2.81;83.94
47757;SHT35;22147;52.388;13.390;2023-03-05T00:31:50;2.83;84.49
47757;SHT35;22147;52.388;13.390;2023-03-05T00:34:21;2.88;83.88
47757;SHT35;22147;52.388;13.390;2023-03-05T00:36:51;2.81;84.18
47757;SHT35;22147;52.388;13.390;2023-03-05T00:39:21;2.70;84.11
47757;SHT35;22147;52.388;13.390;2023-03-05T00:41:51;2.65;84.45
47757;SHT35;22147;52.388;13.390;2023-03-05T00:44:21;2.56;85.07
47757;SHT35;22147;52.388;13.390;2023-03-05T00:46:51;2.54;85.26
47757;SHT35;22147;52.388;13.390;2023-03-05T00:49:21;2.58;85.56
47757;SHT35;22147;52.388;13.390;2023-03-05T00:51:52;2.56;84.89
47757;SHT35;22147;52.388;13.390;2023-03-05T00:54:21;2.60;84.89
47757;SHT35;22147;52.388;13.390;2023-03-05T00:56:51;2.65;83.65
47757;SHT35;22147;52.388;13.390;2023-03-05T00:59:21;2.64;82.66
47757;SHT35;22147;52.388;13.390;2023-03-05T01:01:51;2.76;80.82
47757;SHT35;22147;52.388;13.390;2023-03-05T01:04:21;2.77;79.80
47757;SHT35;22147;52.388;13.390;2023-03-05T01:06:52;2.80;78.90
47757;SHT35;22147;52.388;13.390;2023-03-05T01:09:21;2.78;78.13
47757;SHT35;22147;52.388;13.390;2023-03-05T01:11:53;2.83;77.72
47757;SHT35;22147;52.388;13.390;2023-03-05T01:14:23;2.81;76.72
47757;SHT35;22147;52.388;13.390;2023-03-05T01:16:53;2.78;76.66
47757;SHT35;22147;52.388;13.390;2023-03-05T01:19:23;2.94;75.28
47757;SHT35;22147;52.388;13.390;2023-03-05T01:21:53;2.91;75.09
47757;SHT35;22147;52.388;13.390;2023-03-05T01:24:23;2.85;75.10
47757;SHT35;22147;52.388;13.390;2023-03-05T01:26:54;2.74;75.28
47757;SHT35;22147;52.388;13.390;2023-03-05T01:29:24;2.71;75.06
47757;SHT35;22147;52.388;13.390;2023-03-05T01:31:52;2.78;74.52
47757;SHT35;22147;52.388;13.390;2023-03-05T01:34:20;2.80;74.34
47757;SHT35;22147;52.388;13.390;2023-03-05T01:36:49;2.73;74.04
47757;SHT35;22147;52.388;13.390;2023-03-05T01:39:17;2.71;73.68
47757;SHT35;22147;52.388;13.390;2023-03-05T01:41:46;2.74;73.38
47757;SHT35;22147;52.388;13.390;2023-03-05T01:44:27;2.71;73.72
47757;SHT35;22147;52.388;13.390;2023-03-05T01:46:57;2.62;73.31
47757;SHT35;22147;52.388;13.390;2023-03-05T01:49:39;2.61;73.39
47757;SHT35;22147;52.388;13.390;2023-03-05T01:52:23;2.56;73.21
47757;SHT35;22147;52.388;13.390;2023-03-05T01:55:36;2.46;73.59
47757;SHT35;22147;52.388;13.390;2023-03-05T01:58:12;2.46;73.65
47757;SHT35;22147;52.388;13.390;2023-03-05T02:00:52;2.40;72.89
47757;SHT35;22147;52.388;13.390;2023-03-05T02:03:25;2.34;72.59
47757;SHT35;22147;52.388;13.390;2023-03-05T02:05:55;2.32;72.10
47757;SHT35;22147;52.388;13.390;2023-03-05T02:08:25;2.41;71.49
47757;SHT35;22147;52.388;13.390;2023-03-05T02:10:56;2.39;71.01
47757;SHT35;22147;52.388;13.390;2023-03-05T02:13:33;2.28;70.79
47757;SHT35;22147;52.388;13.390;2023-03-05T02:16:05;2.40;70.32
47757;SHT35;22147;52.388;13.390;2023-03-05T02:18:35;2.22;71.34
47757;SHT35;22147;52.388;13.390;2023-03-05T02:21:10;2.34;70.20
47757;SHT35;22147;52.388;13.390;2023-03-05T02:23:40;2.29;70.06
47757;SHT35;22147;52.388;13.390;2023-03-05T02:26:10;2.16;70.14
47757;SHT35;22147;52.388;13.390;2023-03-05T02:28:52;2.18;70.26
47757;SHT35;22147;52.388;13.390;2023-03-05T02:31:25;2.18;69.76
47757;SHT35;22147;52.388;13.390;2023-03-05T02:33:54;2.13;69.67
47757;SHT35;22147;52.388;13.390;2023-03-05T02:36:25;2.26;69.51
47757;SHT35;22147;52.388;13.390;2023-03-05T02:38:56;2.08;69.45
47757;SHT35;22147;52.388;13.390;2023-03-05T02:41:26;2.06;69.62
47757;SHT35;22147;52.388;13.390;2023-03-05T02:43:56;2.11;69.42
47757;SHT35;22147;52.388;13.390;2023-03-05T02:46:25;2.09;69.19
47757;SHT35;22147;52.388;13.390;2023-03-05T02:48:55;2.26;68.43
47757;SHT35;22147;52.388;13.390;2023-03-05T02:51:25;2.18;69.12
47757;SHT35;22147;52.388;13.390;2023-03-05T02:53:55;2.08;70.03
47757;SHT35;22147;52.388;13.390;2023-03-05T02:56:25;2.01;70.28
47757;SHT35;22147;52.388;13.390;2023-03-05T02:58:55;2.16;69.38
47757;SHT35;22147;52.388;13.390;2023-03-05T03:01:24;2.05;69.91
47757;SHT35;22147;52.388;13.390;2023-03-05T03:03:57;1.98;70.29
47757;SHT35;22147;52.388;13.390;2023-03-05T03:06:27;2.02;70.13
47757;SHT35;22147;52.388;13.390;2023-03-05T03:08:57;1.94;70.87
47757;SHT35;22147;52.388;13.390;2023-03-05T03:11:27;2.05;70.53
47757;SHT35;22147;52.388;13.390;2023-03-05T03:13:56;1.99;71.10
47757;SHT35;22147;52.388;13.390;2023-03-05T03:16:24;2.03;70.98
47757;SHT35;22147;52.388;13.390;2023-03-05T03:18:53;1.99;71.00
47757;SHT35;22147;52.388;13.390;2023-03-05T03:21:24;1.95;71.61
47757;SHT35;22147;52.388;13.390;2023-03-05T03:23:53;1.95;71.77
47757;SHT35;22147;52.388;13.390;2023-03-05T03:26:22;1.98;71.85
47757;SHT35;22147;52.388;13.390;2023-03-05T03:28:50;2.12;71.44
47757;SHT35;22147;52.388;13.390;2023-03-05T03:31:19;2.13;71.38
47757;SHT35;22147;52.388;13.390;2023-03-05T03:33:47;2.11;71.61
47757;SHT35;22147;52.388;13.390;2023-03-05T03:36:15;2.06;71.61
47757;SHT35;22147;52.388;13.390;2023-03-05T03:38:44;2.02;72.16
47757;SHT35;22147;52.388;13.390;2023-03-05T03:41:12;2.01;72.18
47757;SHT35;22147;52.388;13.390;2023-03-05T03:43:41;2.01;71.71
47757;SHT35;22147;52.388;13.390;2023-03-05T03:46:09;1.97;72.01
47757;SHT35;22147;52.388;13.390;2023-03-05T03:48:38;1.88;72.21
47757;SHT35;22147;52.388;13.390;2023-03-05T03:51:07;1.91;72.06
47757;SHT35;22147;52.388;13.390;2023-03-05T03:53:34;1.86;72.52
47757;SHT35;22147;52.388;13.390;2023-03-05T03:56:03;1.82;72.37
47757;SHT35;22147;52.388;13.390;2023-03-05T03:58:32;1.81;72.93
47757;SHT35;22147;52.388;13.390;2023-03-05T04:01:00;1.77;73.19
47757;SHT35;22147;52.388;13.390;2023-03-05T04:03:29;1.84;73.04
47757;SHT35;22147;52.388;13.390;2023-03-05T04:05:57;1.78;73.20
47757;SHT35;22147;52.388;13.390;2023-03-05T04:08:25;1.64;73.73
47757;SHT35;22147;52.388;13.390;2023-03-05T04:10:54;1.61;73.87
47757;SHT35;22147;52.388;13.390;2023-03-05T04:13:23;1.53;74.62
47757;SHT35;22147;52.388;13.390;2023-03-05T04:15:52;1.60;74.63
47757;SHT35;22147;52.388;13.390;2023-03-05T04:18:20;1.58;74.85
47757;SHT35;22147;52.388;13.390;2023-03-05T04:20:48;1.60;74.85
47757;SHT35;22147;52.388;13.390;2023-03-05T04:23:17;1.43;75.61
47757;SHT35;22147;52.388;13.390;2023-03-05T04:25:45;1.39;76.16
47757;SHT35;22147;52.388;13.390;2023-03-05T04:28:14;1.46;76.08
47757;SHT35;22147;52.388;13.390;2023-03-05T04:30:42;1.48;75.87
47757;SHT35;22147;52.388;13.390;2023-03-05T04:33:10;1.34;76.64
47757;SHT35;22147;52.388;13.390;2023-03-05T04:35:39;1.30;77.20
47757;SHT35;22147;52.388;13.390;2023-03-05T04:38:08;1.37;77.24
47757;SHT35;22147;52.388;13.390;2023-03-05T04:40:37;1.54;76.47
47757;SHT35;22147;52.388;13.390;2023-03-05T04:43:05;1.33;77.33
47757;SHT35;22147;52.388;13.390;2023-03-05T04:45:33;1.29;77.86
47757;SHT35;22147;52.388;13.390;2023-03-05T04:48:01;1.37;78.12
47757;SHT35;22147;52.388;13.390;2023-03-05T04:50:30;1.47;77.57
47757;SHT35;22147;52.388;13.390;2023-03-05T04:52:58;1.33;78.04
47757;SHT35;22147;52.388;13.390;2023-03-05T04:55:27;1.47;78.22
47757;SHT35;22147;52.388;13.390;2023-03-05T04:57:56;1.37;77.90
47757;SHT35;22147;52.388;13.390;2023-03-05T05:00:26;1.44;77.98
47757;SHT35;22147;52.388;13.390;2023-03-05T05:02:56;1.37;78.51
47757;SHT35;22147;52.388;13.390;2023-03-05T05:05:28;1.29;78.61
47757;SHT35;22147;52.388;13.390;2023-03-05T05:07:58;1.30;78.63
47757;SHT35;22147;52.388;13.390;2023-03-05T05:10:28;1.39;78.85
47757;SHT35;22147;52.388;13.390;2023-03-05T05:13:00;1.43;78.43
47757;SHT35;22147;52.388;13.390;2023-03-05T05:15:30;1.30;78.81
47757;SHT35;22147;52.388;13.390;2023-03-05T05:18:01;1.20;79.31
47757;SHT35;22147;52.388;13.390;2023-03-05T05:20:31;1.29;79.00
47757;SHT35;22147;52.388;13.390;2023-03-05T05:23:01;1.37;79.20
47757;SHT35;22147;52.388;13.390;2023-03-05T05:25:31;1.37;78.90
47757;SHT35;22147;52.388;13.390;2023-03-05T05:28:02;1.32;78.98
47757;SHT35;22147;52.388;13.390;2023-03-05T05:30:32;1.20;79.24
47757;SHT35;22147;52.388;13.390;2023-03-05T05:33:02;1.20;79.61
47757;SHT35;22147;52.388;13.390;2023-03-05T05:35:32;1.17;79.62
47757;SHT35;22147;52.388;13.390;2023-03-05T05:38:03;1.20;80.00
47757;SHT35;22147;52.388;13.390;2023-03-05T05:40:33;1.34;79.40
47757;SHT35;22147;52.388;13.390;2023-03-05T05:43:03;1.32;79.64
47757;SHT35;22147;52.388;13.390;2023-03-05T05:45:33;1.29;79.81
47757;SHT35;22147;52.388;13.390;2023-03-05T05:48:03;1.29;79.52
47757;SHT35;22147;52.388;13.390;2023-03-05T05:50:33;1.27;79.88
47757;SHT35;22147;52.388;13.390;2023-03-05T05:53:04;1.24;79.86
47757;SHT35;22147;52.388;13.390;2023-03-05T05:55:34;1.40;79.88
47757;SHT35;22147;52.388;13.390;2023-03-05T05:58:04;1.34;79.66
47757;SHT35;22147;52.388;13.390;2023-03-05T06:00:34;1.37;80.04
47757;SHT35;22147;52.388;13.390;2023-03-05T06:03:04;1.40;79.73
47757;SHT35;22147;52.388;13.390;2023-03-05T06:05:34;1.43;79.81
47757;SHT35;22147;52.388;13.390;2023-03-05T06:08:04;1.46;79.97
47757;SHT35;22147;52.388;13.390;2023-03-05T06:10:35;1.51;80.18
47757;SHT35;22147;52.388;13.390;2023-03-05T06:13:05;1.54;80.10
47757;SHT35;22147;52.388;13.390;2023-03-05T06:15:35;1.57;80.29
47757;SHT35;22147;52.388;13.390;2023-03-05T06:18:05;1.64;79.97
47757;SHT35;22147;52.388;13.390;2023-03-05T06:20:35;1.67;79.97
47757;SHT35;22147;52.388;13.390;2023-03-05T06:23:05;1.74;80.19
47757;SHT35;22147;52.388;13.390;2023-03-05T06:25:36;1.86;79.67
47757;SHT35;22147;52.388;13.390;2023-03-05T06:28:06;1.79;79.69
47757;SHT35;22147;52.388;13.390;2023-03-05T06:30:37;1.78;79.87
47757;SHT35;22147;52.388;13.390;2023-03-05T06:33:07;1.86;79.53
47757;SHT35;22147;52.388;13.390;2023-03-05T06:35:38;1.86;79.58
47757;SHT35;22147;52.388;13.390;2023-03-05T06:38:09;1.94;79.28
47757;SHT35;22147;52.388;13.390;2023-03-05T06:40:38;1.95;79.22
47757;SHT35;22147;52.388;13.390;2023-03-05T06:43:09;2.01;79.44
47757;SHT35;22147;52.388;13.390;2023-03-05T06:45:38;2.12;78.31
47757;SHT35;22147;52.388;13.390;2023-03-05T06:48:08;2.09;78.35
47757;SHT35;22147;52.388;13.390;2023-03-05T06:50:39;2.12;78.26
47757;SHT35;22147;52.388;13.390;2023-03-05T06:53:09;2.15;78.66
47757;SHT35;22147;52.388;13.390;2023-03-05T06:55:39;2.20;78.45
47757;SHT35;22147;52.388;13.390;2023-03-05T06:58:09;2.19;78.43
47757;SHT35;22147;52.388;13.390;2023-03-05T07:00:39;2.32;78.45
47757;SHT35;22147;52.388;13.390;2023-03-05T07:03:10;2.29;78.54
47757;SHT35;22147;52.388;13.390;2023-03-05T07:05:41;2.37;78.25
47757;SHT35;22147;52.388;13.390;2023-03-05T07:08:11;2.25;78.46
47757;SHT35;22147;52.388;13.390;2023-03-05T07:10:42;2.41;77.63
47757;SHT35;22147;52.388;13.390;2023-03-05T07:13:12;2.51;77.45
47757;SHT35;22147;52.388;13.390;2023-03-05T07:15:42;2.50;77.19
47757;SHT35;22147;52.388;13.390;2023-03-05T07:18:12;2.57;76.83
47757;SHT35;22147;52.388;13.390;2023-03-05T07:20:42;2.57;76.54
47757;SHT35;22147;52.388;13.390;2023-03-05T07:23:12;2.53;76.46
47757;SHT35;22147;52.388;13.390;2023-03-05T07:25:42;2.58;76.69
47757;SHT35;22147;52.388;13.390;2023-03-05T07:28:12;2.60;76.53
47757;SHT35;22147;52.388;13.390;2023-03-05T07:30:42;2.57;76.64
47757;SHT35;22147;52.388;13.390;2023-03-05T07:33:12;2.76;75.27
47757;SHT35;22147;52.388;13.390;2023-03-05T07:35:42;2.78;75.46
47757;SHT35;22147;52.388;13.390;2023-03-05T07:38:12;2.80;75.22
47757;SHT35;22147;52.388;13.390;2023-03-05T07:40:41;2.92;74.99
47757;SHT35;22147;52.388;13.390;2023-03-05T07:43:12;2.97;75.02
47757;SHT35;22147;52.388;13.390;2023-03-05T07:45:45;2.97;74.37
47757;SHT35;22147;52.388;13.390;2023-03-05T07:48:18;2.95;74.06
47757;SHT35;22147;52.388;13.390;2023-03-05T07:50:49;2.95;73.81
47757;SHT35;22147;52.388;13.390;2023-03-05T07:53:19;2.99;73.77
47757;SHT35;22147;52.388;13.390;2023-03-05T07:55:49;3.07;73.13
47757;SHT35;22147;52.388;13.390;2023-03-05T07:58:19;3.09;73.22
47757;SHT35;22147;52.388;13.390;2023-03-05T08:00:49;3.05;73.43
47757;SHT35;22147;52.388;13.390;2023-03-05T08:03:19;3.11;73.57
47757;SHT35;22147;52.388;13.390;2023-03-05T08:05:49;3.23;73.03
47757;SHT35;22147;52.388;13.390;2023-03-05T08:08:19;3.30;72.87
47757;SHT35;22147;52.388;13.390;2023-03-05T08:10:47;3.35;71.37
47757;SHT35;22147;52.388;13.390;2023-03-05T08:13:16;3.39;71.10
47757;SHT35;22147;52.388;13.390;2023-03-05T08:15:44;3.29;69.98
47757;SHT35;22147;52.388;13.390;2023-03-05T08:18:13;3.33;71.01
47757;SHT35;22147;52.388;13.390;2023-03-05T08:20:41;3.64;70.60
47757;SHT35;22147;52.388;13.390;2023-03-05T08:23:10;4.16;68.69
47757;SHT35;22147;52.388;13.390;2023-03-05T08:25:38;4.46;67.44
47757;SHT35;22147;52.388;13.390;2023-03-05T08:28:07;4.41;66.71
47757;SHT35;22147;52.388;13.390;2023-03-05T08:30:35;4.42;66.23
47757;SHT35;22147;52.388;13.390;2023-03-05T08:33:03;4.57;65.66
47757;SHT35;22147;52.388;13.390;2023-03-05T08:35:32;4.49;64.99
47757;SHT35;22147;52.388;13.390;2023-03-05T08:38:05;4.38;65.61
47757;SHT35;22147;52.388;13.390;2023-03-05T08:40:35;4.35;66.05
47757;SHT35;22147;52.388;13.390;2023-03-05T08:43:05;4.28;63.60
47757;SHT35;22147;52.388;13.390;2023-03-05T08:45:38;4.12;65.94
47757;SHT35;22147;52.388;13.390;2023-03-05T08:48:08;4.41;64.81
47757;SHT35;22147;52.388;13.390;2023-03-05T08:50:38;4.49;63.58
47757;SHT35;22147;52.388;13.390;2023-03-05T08:53:09;4.57;63.18
47757;SHT35;22147;52.388;13.390;2023-03-05T08:55:40;4.42;62.30
47757;SHT35;22147;52.388;13.390;2023-03-05T08:58:12;4.39;63.21
47757;SHT35;22147;52.388;13.390;2023-03-05T09:00:43;4.56;62.81
47757;SHT35;22147;52.388;13.390;2023-03-05T09:03:13;4.50;62.74
47757;SHT35;22147;52.388;13.390;2023-03-05T09:05:43;4.52;62.24
47757;SHT35;22147;52.388;13.390;2023-03-05T09:08:14;4.36;62.11
47757;SHT35;22147;52.388;13.390;2023-03-05T09:10:46;4.41;62.83
47757;SHT35;22147;52.388;13.390;2023-03-05T09:13:16;4.39;61.91
47757;SHT35;22147;52.388;13.390;2023-03-05T09:16:03;4.62;60.07
47757;SHT35;22147;52.388;13.390;2023-03-05T09:18:34;4.45;60.99
47757;SHT35;22147;52.388;13.390;2023-03-05T09:21:10;4.62;59.73
47757;SHT35;22147;52.388;13.390;2023-03-05T09:23:42;4.52;60.33
47757;SHT35;22147;52.388;13.390;2023-03-05T09:26:16;4.50;59.70
47757;SHT35;22147;52.388;13.390;2023-03-05T09:28:49;4.53;60.45
47757;SHT35;22147;52.388;13.390;2023-03-05T09:31:20;4.44;60.85
47757;SHT35;22147;52.388;13.390;2023-03-05T09:33:50;4.50;60.90
47757;SHT35;22147;52.388;13.390;2023-03-05T09:36:27;4.55;59.78
47757;SHT35;22147;52.388;13.390;2023-03-05T09:38:58;4.44;58.95
47757;SHT35;22147;52.388;13.390;2023-03-05T09:44:36;4.38;60.09
47757;SHT35;22147;52.388;13.390;2023-03-05T09:48:22;4.38;59.84
47757;SHT35;22147;52.388;13.390;2023-03-05T09:51:04;4.24;59.56
47757;SHT35;22147;52.388;13.390;2023-03-05T09:53:49;4.22;60.84
47757;SHT35;22147;52.388;13.390;2023-03-05T09:56:37;4.38;60.04
47757;SHT35;22147;52.388;13.390;2023-03-05T10:02:26;4.69;59.58
47757;SHT35;22147;52.388;13.390;2023-03-05T10:05:17;4.50;59.42
47757;SHT35;22147;52.388;13.390;2023-03-05T10:08:02;4.62;59.63
47757;SHT35;22147;52.388;13.390;2023-03-05T10:10:50;4.79;59.87
47757;SHT35;22147;52.388;13.390;2023-03-05T10:13:29;4.87;57.34
47757;SHT35;22147;52.388;13.390;2023-03-05T10:22:30;4.98;56.71
47757;SHT35;22147;52.388;13.390;2023-03-05T10:27:57;4.67;58.13
47757;SHT35;22147;52.388;13.390;2023-03-05T10:36:42;4.94;57.70
47757;SHT35;22147;52.388;13.390;2023-03-05T10:39:53;5.45;56.13
47757;SHT35;22147;52.388;13.390;2023-03-05T10:45:44;5.52;56.92
47757;SHT35;22147;52.388;13.390;2023-03-05T10:48:37;5.69;57.28
47757;SHT35;22147;52.388;13.390;2023-03-05T10:51:35;5.79;56.23
47757;SHT35;22147;52.388;13.390;2023-03-05T10:54:31;5.86;57.19
47757;SHT35;22147;52.388;13.390;2023-03-05T10:57:24;6.10;56.82
47757;SHT35;22147;52.388;13.390;2023-03-05T11:00:19;6.31;55.99
47757;SHT35;22147;52.388;13.390;2023-03-05T11:03:10;5.99;55.93
47757;SHT35;22147;52.388;13.390;2023-03-05T11:06:00;5.83;57.35
47757;SHT35;22147;52.388;13.390;2023-03-05T11:08:36;5.97;56.71
47757;SHT35;22147;52.388;13.390;2023-03-05T11:11:15;6.09;56.84
47757;SHT35;22147;52.388;13.390;2023-03-05T11:14:02;6.22;55.58
47757;SHT35;22147;52.388;13.390;2023-03-05T11:16:47;6.01;55.57
47757;SHT35;22147;52.388;13.390;2023-03-05T11:19:32;5.96;55.94
47757;SHT35;22147;52.388;13.390;2023-03-05T11:22:24;5.63;56.16
47757;SHT35;22147;52.388;13.390;2023-03-05T11:25:16;5.38;56.95
47757;SHT35;22147;52.388;13.390;2023-03-05T11:27:57;5.07;58.53
47757;SHT35;22147;52.388;13.390;2023-03-05T11:30:36;4.77;59.60
47757;SHT35;22147;52.388;13.390;2023-03-05T11:33:21;4.53;60.61
47757;SHT35;22147;52.388;13.390;2023-03-05T11:38:58;4.15;63.87
47757;SHT35;22147;52.388;13.390;2023-03-05T11:47:43;3.76;67.53
47757;SHT35;22147;52.388;13.390;2023-03-05T11:50:30;3.86;68.88
47757;SHT35;22147;52.388;13.390;2023-03-05T11:53:28;3.98;69.37
47757;SHT35;22147;52.388;13.390;2023-03-05T11:56:30;4.39;68.39
47757;SHT35;22147;52.388;13.390;2023-03-05T11:59:29;4.34;67.55
47757;SHT35;22147;52.388;13.390;2023-03-05T12:02:00;4.36;68.59
47757;SHT35;22147;52.388;13.390;2023-03-05T12:04:35;4.28;68.88
47757;SHT35;22147;52.388;13.390;2023-03-05T12:07:18;4.08;69.39
47757;SHT35;22147;52.388;13.390;2023-03-05T12:09:52;4.21;69.98
47757;SHT35;22147;52.388;13.390;2023-03-05T12:15:45;3.81;69.70
47757;SHT35;22147;52.388;13.390;2023-03-05T12:35:31;4.50;69.12
47757;SHT35;22147;52.388;13.390;2023-03-05T12:38:27;4.59;69.82
47757;SHT35;22147;52.388;13.390;2023-03-05T12:49:39;4.76;68.60
47757;SHT35;22147;52.388;13.390;2023-03-05T12:52:26;4.87;67.28
47757;SHT35;22147;52.388;13.390;2023-03-05T12:55:33;4.65;67.76
47757;SHT35;22147;52.388;13.390;2023-03-05T12:58:46;4.66;67.00
47757;SHT35;22147;52.388;13.390;2023-03-05T13:02:02;4.55;68.41
47757;SHT35;22147;52.388;13.390;2023-03-05T13:04:45;4.38;67.21
47757;SHT35;22147;52.388;13.390;2023-03-05T13:07:18;4.39;67.69
47757;SHT35;22147;52.388;13.390;2023-03-05T13:09:58;4.21;68.47
47757;SHT35;22147;52.388;13.390;2023-03-05T13:12:29;3.97;69.74
47757;SHT35;22147;52.388;13.390;2023-03-05T13:15:07;3.67;73.02
47757;SHT35;22147;52.388;13.390;2023-03-05T13:18:00;3.53;75.49
47757;SHT35;22147;52.388;13.390;2023-03-05T13:20:41;3.66;76.58
47757;SHT35;22147;52.388;13.390;2023-03-05T13:23:26;3.56;76.92
47757;SHT35;22147;52.388;13.390;2023-03-05T13:26:19;3.86;75.58
47757;SHT35;22147;52.388;13.390;2023-03-05T13:29:13;4.05;75.49
47757;SHT35;22147;52.388;13.390;2023-03-05T13:32:29;3.97;75.68
47757;SHT35;22147;52.388;13.390;2023-03-05T13:35:00;4.19;73.22
47757;SHT35;22147;52.388;13.390;2023-03-05T13:37:36;4.31;72.56
47757;SHT35;22147;52.388;13.390;2023-03-05T13:40:30;4.32;70.42
47757;SHT35;22147;52.388;13.390;2023-03-05T13:43:17;4.25;70.66
47757;SHT35;22147;52.388;13.390;2023-03-05T13:45:54;4.24;70.84
47757;SHT35;22147;52.388;13.390;2023-03-05T13:48:27;4.29;68.66
47757;SHT35;22147;52.388;13.390;2023-03-05T13:50:57;4.28;68.00
47757;SHT35;22147;52.388;13.390;2023-03-05T13:53:30;4.12;68.11
47757;SHT35;22147;52.388;13.390;2023-03-05T13:56:19;4.04;68.05
47757;SHT35;22147;52.388;13.390;2023-03-05T13:58:56;4.11;68.27
47757;SHT35;22147;52.388;13.390;2023-03-05T14:01:44;4.14;67.30
47757;SHT35;22147;52.388;13.390;2023-03-05T14:04:27;4.19;66.56
47757;SHT35;22147;52.388;13.390;2023-03-05T14:10:37;4.29;65.60
47757;SHT35;22147;52.388;13.390;2023-03-05T14:13:20;4.18;65.35
47757;SHT35;22147;52.388;13.390;2023-03-05T14:16:08;4.16;65.85
47757;SHT35;22147;52.388;13.390;2023-03-05T14:18:57;4.34;65.80
47757;SHT35;22147;52.388;13.390;2023-03-05T14:21:49;4.31;66.65
47757;SHT35;22147;52.388;13.390;2023-03-05T14:24:24;4.49;65.39
47757;SHT35;22147;52.388;13.390;2023-03-05T14:27:03;4.45;66.05
47757;SHT35;22147;52.388;13.390;2023-03-05T14:29:36;4.44;66.15
47757;SHT35;22147;52.388;13.390;2023-03-05T14:32:26;4.39;66.87
47757;SHT35;22147;52.388;13.390;2023-03-05T14:35:01;4.28;66.96
47757;SHT35;22147;52.388;13.390;2023-03-05T14:37:40;4.29;67.33
47757;SHT35;22147;52.388;13.390;2023-03-05T14:43:04;4.08;68.04
47757;SHT35;22147;52.388;13.390;2023-03-05T14:45:42;4.02;68.95
47757;SHT35;22147;52.388;13.390;2023-03-05T14:48:17;3.74;69.76
47757;SHT35;22147;52.388;13.390;2023-03-05T14:50:53;3.59;72.32
47757;SHT35;22147;52.388;13.390;2023-03-05T14:53:32;3.46;74.24
47757;SHT35;22147;52.388;13.390;2023-03-05T14:56:26;3.30;76.06
47757;SHT35;22147;52.388;13.390;2023-03-05T14:58:57;3.36;75.60
47757;SHT35;22147;52.388;13.390;2023-03-05T15:01:27;3.43;74.73
47757;SHT35;22147;52.388;13.390;2023-03-05T15:03:57;3.38;75.58
47757;SHT35;22147;52.388;13.390;2023-03-05T15:06:36;3.35;74.73
47757;SHT35;22147;52.388;13.390;2023-03-05T15:09:07;3.38;73.71
47757;SHT35;22147;52.388;13.390;2023-03-05T15:11:35;3.35;73.05
47757;SHT35;22147;52.388;13.390;2023-03-05T15:14:03;3.42;72.19
47757;SHT35;22147;52.388;13.390;2023-03-05T15:16:32;3.39;71.73
47757;SHT35;22147;52.388;13.390;2023-03-05T15:19:00;3.40;71.83
47757;SHT35;22147;52.388;13.390;2023-03-05T15:21:32;3.32;73.06
47757;SHT35;22147;52.388;13.390;2023-03-05T15:24:05;3.23;72.98
47757;SHT35;22147;52.388;13.390;2023-03-05T15:26:35;3.28;73.13
47757;SHT35;22147;52.388;13.390;2023-03-05T15:29:06;3.22;72.89
47757;SHT35;22147;52.388;13.390;2023-03-05T15:31:36;3.16;72.89
47757;SHT35;22147;52.388;13.390;2023-03-05T15:34:09;3.16;72.36
47757;SHT35;22147;52.388;13.390;2023-03-05T15:36:39;3.08;73.25
47757;SHT35;22147;52.388;13.390;2023-03-05T15:39:09;3.13;73.45
47757;SHT35;22147;52.388;13.390;2023-03-05T15:41:39;2.99;73.13
47757;SHT35;22147;52.388;13.390;2023-03-05T15:44:09;2.99;73.60
47757;SHT35;22147;52.388;13.390;2023-03-05T15:46:39;2.98;73.29
47757;SHT35;22147;52.388;13.390;2023-03-05T15:49:09;2.90;73.81
47757;SHT35;22147;52.388;13.390;2023-03-05T15:51:39;2.91;73.32
47757;SHT35;22147;52.388;13.390;2023-03-05T15:54:10;3.01;72.39
47757;SHT35;22147;52.388;13.390;2023-03-05T15:56:40;2.87;73.76
47757;SHT35;22147;52.388;13.390;2023-03-05T15:59:10;2.83;73.79
47757;SHT35;22147;52.388;13.390;2023-03-05T16:01:50;2.77;73.87
47757;SHT35;22147;52.388;13.390;2023-03-05T16:04:20;2.74;73.73
47757;SHT35;22147;52.388;13.390;2023-03-05T16:06:51;2.77;74.56
47757;SHT35;22147;52.388;13.390;2023-03-05T16:09:21;2.85;73.49
47757;SHT35;22147;52.388;13.390;2023-03-05T16:11:52;2.81;74.19
47757;SHT35;22147;52.388;13.390;2023-03-05T16:14:26;2.84;74.09
47757;SHT35;22147;52.388;13.390;2023-03-05T16:17:01;2.91;73.35
47757;SHT35;22147;52.388;13.390;2023-03-05T16:19:39;2.85;73.50
47757;SHT35;22147;52.388;13.390;2023-03-05T16:22:08;2.80;73.73
47757;SHT35;22147;52.388;13.390;2023-03-05T16:24:39;2.87;72.84
47757;SHT35;22147;52.388;13.390;2023-03-05T16:27:10;2.74;73.07
47757;SHT35;22147;52.388;13.390;2023-03-05T16:29:39;2.57;73.36
47757;SHT35;22147;52.388;13.390;2023-03-05T16:32:09;2.62;73.62
47757;SHT35;22147;52.388;13.390;2023-03-05T16:34:39;2.54;74.32
47757;SHT35;22147;52.388;13.390;2023-03-05T16:37:09;2.46;75.11
47757;SHT35;22147;52.388;13.390;2023-03-05T16:39:39;2.43;74.95
47757;SHT35;22147;52.388;13.390;2023-03-05T16:42:12;2.39;75.38
47757;SHT35;22147;52.388;13.390;2023-03-05T16:44:44;2.33;75.61
47757;SHT35;22147;52.388;13.390;2023-03-05T16:47:15;2.34;75.47
47757;SHT35;22147;52.388;13.390;2023-03-05T16:49:45;2.43;75.29
47757;SHT35;22147;52.388;13.390;2023-03-05T16:52:15;2.34;75.26
47757;SHT35;22147;52.388;13.390;2023-03-05T16:54:49;2.32;75.79
47757;SHT35;22147;52.388;13.390;2023-03-05T16:57:19;2.28;76.39
47757;SHT35;22147;52.388;13.390;2023-03-05T16:59:54;2.20;76.74
47757;SHT35;22147;52.388;13.390;2023-03-05T17:02:23;2.18;77.01
47757;SHT35;22147;52.388;13.390;2023-03-05T17:04:51;2.15;77.20
47757;SHT35;22147;52.388;13.390;2023-03-05T17:07:19;2.16;77.54
47757;SHT35;22147;52.388;13.390;2023-03-05T17:09:48;2.16;77.86
47757;SHT35;22147;52.388;13.390;2023-03-05T17:12:17;2.13;78.45
47757;SHT35;22147;52.388;13.390;2023-03-05T17:14:46;2.13;79.00
47757;SHT35;22147;52.388;13.390;2023-03-05T17:17:16;2.09;79.50
47757;SHT35;22147;52.388;13.390;2023-03-05T17:19:44;2.03;80.37
47757;SHT35;22147;52.388;13.390;2023-03-05T17:22:13;2.06;80.53